createdAt,value
2018-11-01T00:01:32.025Z,1.98
2018-11-01T00:04:02.929Z,1.57
2018-11-01T00:06:32.774Z,1.55
2018-11-01T00:09:02.716Z,1.47
2018-11-01T00:11:32.635Z,1.62
2018-11-01T00:14:02.485Z,1.62
2018-11-01T00:16:32.419Z,1.32
2018-11-01T00:19:02.357Z,1.77
2018-11-01T00:21:32.223Z,1.75
2018-11-01T00:24:02.116Z,0.90
2018-11-01T00:26:31.988Z,1.60
2018-11-01T00:29:01.922Z,1.42
2018-11-01T00:31:31.890Z,1.65
2018-11-01T00:34:01.767Z,1.40
2018-11-01T00:36:32.105Z,1.50
2018-11-01T00:39:02.304Z,1.42
2018-11-01T00:41:32.180Z,1.60
2018-11-01T00:44:02.114Z,1.57
2018-11-01T00:46:31.968Z,1.45
2018-11-01T00:49:01.832Z,1.17
2018-11-01T00:51:31.854Z,1.40
2018-11-01T00:54:02.682Z,1.07
2018-11-01T00:56:32.564Z,1.37
2018-11-01T00:59:02.400Z,1.52
2018-11-01T01:01:32.455Z,1.07
2018-11-01T01:04:02.350Z,1.25
2018-11-01T01:06:32.196Z,1.40
2018-11-01T01:09:02.119Z,1.30
2018-11-01T01:11:31.983Z,1.47
2018-11-01T01:14:02.603Z,1.50
2018-11-01T01:16:32.559Z,1.35
2018-11-01T01:19:02.606Z,1.20
2018-11-01T01:21:32.314Z,1.17
2018-11-01T01:24:02.201Z,1.47
2018-11-01T01:26:32.527Z,1.15
2018-11-01T01:29:02.865Z,1.07
2018-11-01T01:31:32.710Z,1.30
2018-11-01T01:34:03.264Z,1.12
2018-11-01T01:36:33.121Z,1.30
2018-11-01T01:39:03.064Z,1.20
2018-11-01T01:41:33.235Z,1.27
2018-11-01T01:44:03.100Z,1.47
2018-11-01T01:46:32.938Z,1.67
2018-11-01T01:49:02.916Z,1.70
2018-11-01T01:51:32.828Z,1.50
2018-11-01T01:54:02.697Z,1.10
2018-11-01T01:56:32.906Z,1.40
2018-11-01T01:59:02.987Z,1.30
2018-11-01T02:01:33.132Z,1.40
2018-11-01T02:04:02.989Z,1.17
2018-11-01T02:06:32.808Z,1.37
2018-11-01T02:09:03.122Z,1.30
2018-11-01T02:11:33.324Z,1.22
2018-11-01T02:14:03.132Z,1.12
2018-11-01T02:16:32.970Z,1.35
2018-11-01T02:19:03.092Z,1.20
2018-11-01T02:21:32.960Z,1.35
2018-11-01T02:24:02.828Z,1.30
2018-11-01T02:26:33.697Z,1.00
2018-11-01T02:29:03.688Z,1.57
2018-11-01T02:31:33.525Z,1.22
2018-11-01T02:34:03.558Z,1.17
2018-11-01T02:36:33.441Z,1.07
2018-11-01T02:39:04.697Z,1.05
2018-11-01T02:41:34.571Z,1.30
2018-11-01T02:44:04.676Z,0.98
2018-11-01T02:46:34.695Z,1.15
2018-11-01T02:49:05.141Z,1.27
2018-11-01T02:51:35.066Z,1.10
2018-11-01T02:54:05.631Z,1.20
2018-11-01T02:56:35.534Z,1.15
2018-11-01T02:59:06.015Z,1.10
2018-11-01T03:01:35.867Z,1.00
2018-11-01T03:04:05.741Z,1.20
2018-11-01T03:06:35.697Z,1.05
2018-11-01T03:09:06.592Z,1.30
2018-11-01T03:11:36.463Z,1.50
2018-11-01T03:14:06.360Z,1.12
2018-11-01T03:16:36.240Z,1.10
2018-11-01T03:19:06.578Z,1.10
2018-11-01T03:21:36.740Z,1.20
2018-11-01T03:24:06.732Z,0.95
2018-11-01T03:26:36.744Z,1.02
2018-11-01T03:29:07.146Z,0.90
2018-11-01T03:31:37.032Z,0.95
2018-11-01T03:34:06.937Z,1.10
2018-11-01T03:36:36.814Z,1.10
2018-11-01T03:39:07.763Z,1.15
2018-11-01T03:41:37.884Z,0.88
2018-11-01T03:44:07.919Z,1.02
2018-11-01T03:46:38.465Z,1.17
2018-11-01T03:49:08.368Z,1.10
2018-11-01T03:51:38.399Z,1.00
2018-11-01T03:54:08.847Z,1.32
2018-11-01T03:56:38.714Z,0.90
2018-11-01T03:59:08.547Z,1.00
2018-11-01T04:01:38.479Z,0.90
2018-11-01T04:04:08.754Z,1.20
2018-11-01T04:06:38.624Z,1.10
2018-11-01T04:09:10.278Z,1.20
2018-11-01T04:11:40.459Z,1.17
2018-11-01T04:14:10.468Z,1.17
2018-11-01T04:16:40.525Z,1.10
2018-11-01T04:19:10.229Z,0.88
2018-11-01T04:21:40.436Z,1.65
2018-11-01T04:24:10.314Z,1.45
2018-11-01T04:26:40.167Z,1.17
2018-11-01T04:29:10.039Z,1.00
2018-11-01T04:31:39.933Z,1.15
2018-11-01T04:34:11.004Z,1.70
2018-11-01T04:36:40.878Z,0.90
2018-11-01T04:39:11.830Z,1.00
2018-11-01T04:41:41.680Z,0.90
2018-11-01T04:44:12.567Z,1.00
2018-11-01T04:46:42.405Z,1.00
2018-11-01T04:49:12.288Z,1.00
2018-11-01T04:51:42.127Z,1.45
2018-11-01T04:54:12.419Z,1.15
2018-11-01T04:56:42.368Z,1.30
2018-11-01T04:59:12.223Z,1.00
2018-11-01T05:01:42.092Z,1.15
2018-11-01T05:04:12.187Z,1.20
2018-11-01T05:06:42.077Z,1.20
2018-11-01T05:09:11.996Z,1.10
2018-11-01T05:11:41.873Z,1.30
2018-11-01T05:14:11.952Z,0.90
2018-11-01T05:16:42.059Z,1.00
2018-11-01T05:19:12.015Z,1.10
2018-11-01T05:21:41.868Z,0.95
2018-11-01T05:24:11.745Z,0.80
2018-11-01T05:26:41.627Z,1.02
2018-11-01T05:29:11.456Z,1.22
2018-11-01T05:31:42.097Z,1.10
2018-11-01T05:34:11.977Z,0.93
2018-11-01T05:36:42.092Z,1.00
2018-11-01T05:39:13.357Z,1.02
2018-11-01T05:41:43.430Z,0.95
2018-11-01T05:44:13.432Z,1.10
2018-11-01T05:46:43.495Z,0.90
2018-11-01T05:49:13.339Z,1.00
2018-11-01T05:51:43.185Z,1.00
2018-11-01T05:54:13.507Z,1.00
2018-11-01T05:56:43.684Z,1.10
2018-11-01T05:59:13.577Z,1.10
2018-11-01T06:01:48.967Z,0.90
2018-11-01T06:04:18.825Z,0.93
2018-11-01T06:06:48.701Z,0.70
2018-11-01T06:09:24.088Z,1.07
2018-11-01T06:11:53.978Z,1.00
2018-11-01T06:14:23.836Z,0.90
2018-11-01T06:16:53.831Z,0.98
2018-11-01T06:19:23.706Z,0.82
2018-11-01T06:21:53.566Z,0.90
2018-11-01T06:24:23.424Z,1.00
2018-11-01T06:26:53.279Z,0.90
2018-11-01T06:29:23.173Z,1.10
2018-11-01T06:31:53.068Z,0.80
2018-11-01T06:34:31.917Z,0.80
2018-11-01T06:37:01.753Z,1.15
2018-11-01T06:39:32.547Z,0.90
2018-11-01T06:42:02.742Z,1.25
2018-11-01T06:44:32.705Z,1.10
2018-11-01T06:47:02.650Z,1.00
2018-11-01T06:49:32.573Z,0.90
2018-11-01T06:52:02.880Z,1.00
2018-11-01T06:54:32.928Z,1.02
2018-11-01T06:57:03.558Z,1.00
2018-11-01T06:59:33.666Z,0.98
2018-11-01T07:02:03.447Z,1.10
2018-11-01T07:04:33.643Z,0.90
2018-11-01T07:07:04.484Z,1.12
2018-11-01T07:09:34.648Z,1.32
2018-11-01T07:12:04.801Z,0.90
2018-11-01T07:14:34.713Z,1.20
2018-11-01T07:17:05.393Z,0.90
2018-11-01T07:19:35.216Z,1.10
2018-11-01T07:22:05.393Z,0.90
2018-11-01T07:24:35.296Z,1.20
2018-11-01T07:27:05.171Z,1.25
2018-11-01T07:29:35.379Z,1.27
2018-11-01T07:32:05.955Z,0.90
2018-11-01T07:34:35.836Z,1.10
2018-11-01T07:37:06.387Z,1.12
2018-11-01T07:39:36.203Z,1.20
2018-11-01T07:42:06.042Z,1.47
2018-11-01T07:44:35.913Z,1.00
2018-11-01T07:47:06.728Z,1.40
2018-11-01T07:49:37.845Z,1.40
2018-11-01T07:52:07.739Z,1.30
2018-11-01T07:54:37.622Z,1.25
2018-11-01T07:57:07.892Z,1.20
2018-11-01T07:59:37.751Z,1.30
2018-11-01T08:02:07.647Z,1.40
2018-11-01T08:04:37.606Z,1.17
2018-11-01T08:07:07.455Z,1.37
2018-11-01T08:09:43.176Z,1.25
2018-11-01T08:12:18.580Z,1.40
2018-11-01T08:14:48.474Z,1.10
2018-11-01T08:17:18.372Z,1.20
2018-11-01T08:19:49.377Z,1.45
2018-11-01T08:22:19.318Z,1.30
2018-11-01T08:24:49.756Z,1.17
2018-11-01T08:27:19.661Z,1.20
2018-11-01T08:29:49.765Z,0.98
2018-11-01T08:32:19.876Z,1.55
2018-11-01T08:34:49.844Z,1.50
2018-11-01T08:37:20.004Z,1.37
2018-11-01T08:39:50.583Z,1.02
2018-11-01T08:42:20.415Z,1.20
2018-11-01T08:44:51.503Z,1.40
2018-11-01T08:47:21.902Z,1.65
2018-11-01T08:49:51.808Z,1.32
2018-11-01T08:52:21.943Z,1.35
2018-11-01T08:54:52.136Z,1.22
2018-11-01T08:57:22.214Z,1.40
2018-11-01T08:59:52.164Z,1.27
2018-11-01T09:02:22.157Z,1.40
2018-11-01T09:04:52.383Z,1.40
2018-11-01T09:07:23.022Z,1.20
2018-11-01T09:09:52.901Z,1.10
2018-11-01T09:12:23.084Z,1.60
2018-11-01T09:14:53.000Z,1.67
2018-11-01T09:17:22.835Z,2.05
2018-11-01T09:19:52.734Z,2.33
2018-11-01T09:22:22.782Z,1.70
2018-11-01T09:24:52.636Z,1.98
2018-11-01T09:27:22.569Z,1.57
2018-11-01T09:29:52.506Z,1.60
2018-11-01T09:32:22.371Z,1.37
2018-11-01T09:34:52.228Z,1.10
2018-11-01T09:37:22.083Z,1.20
2018-11-01T09:39:51.951Z,1.32
2018-11-01T09:42:22.032Z,1.40
2018-11-01T09:44:52.103Z,1.75
2018-11-01T09:47:22.286Z,1.40
2018-11-01T09:49:52.159Z,1.50
2018-11-01T09:52:22.031Z,1.70
2018-11-01T09:54:51.939Z,1.55
2018-11-01T09:57:21.793Z,1.85
2018-11-01T09:59:51.816Z,2.62
2018-11-01T10:02:22.561Z,2.02
2018-11-01T10:04:52.565Z,1.77
2018-11-01T10:07:22.803Z,2.10
2018-11-01T10:09:52.981Z,2.12
2018-11-01T10:12:23.520Z,1.72
2018-11-01T10:14:54.094Z,2.65
2018-11-01T10:17:24.443Z,2.50
2018-11-01T10:19:53.797Z,2.35
2018-11-01T10:22:23.917Z,4.85
2018-11-01T10:24:53.942Z,3.20
2018-11-01T10:27:23.782Z,2.40
2018-11-01T10:29:53.632Z,2.42
2018-11-01T10:32:23.681Z,2.20
2018-11-01T10:34:53.796Z,2.75
2018-11-01T10:37:23.763Z,2.72
2018-11-01T10:39:53.635Z,3.05
2018-11-01T10:42:23.516Z,2.58
2018-11-01T10:44:53.618Z,2.80
2018-11-01T10:47:23.521Z,3.72
2018-11-01T10:49:53.436Z,2.55
2018-11-01T10:52:23.372Z,3.15
2018-11-01T10:54:53.650Z,3.20
2018-11-01T10:57:24.128Z,2.40
2018-11-01T10:59:53.984Z,3.90
2018-11-01T11:02:24.501Z,3.37
2018-11-01T11:04:54.390Z,2.95
2018-11-01T11:07:24.509Z,2.87
2018-11-01T11:09:55.112Z,2.30
2018-11-01T11:12:25.105Z,4.10
2018-11-01T11:14:54.947Z,3.00
2018-11-01T11:17:24.827Z,3.17
2018-11-01T11:19:54.916Z,2.52
2018-11-01T11:22:24.694Z,4.50
2018-11-01T11:24:54.939Z,4.80
2018-11-01T11:27:24.808Z,3.30
2018-11-01T11:29:54.681Z,2.83
2018-11-01T11:32:24.926Z,2.92
2018-11-01T11:34:54.803Z,2.27
2018-11-01T11:37:24.664Z,3.60
2018-11-01T11:39:54.835Z,2.50
2018-11-01T11:42:25.009Z,2.12
2018-11-01T11:44:54.887Z,2.58
2018-11-01T11:47:24.808Z,2.40
2018-11-01T11:49:54.719Z,2.60
2018-11-01T11:52:24.561Z,2.83
2018-11-01T11:54:54.444Z,2.37
2018-11-01T11:57:24.337Z,2.47
2018-11-01T11:59:54.255Z,3.47
2018-11-01T12:02:24.335Z,2.37
2018-11-01T12:04:54.152Z,3.08
2018-11-01T12:07:24.148Z,2.50
2018-11-01T12:09:54.188Z,2.42
2018-11-01T12:12:24.369Z,3.00
2018-11-01T12:14:54.859Z,3.20
2018-11-01T12:17:25.020Z,3.12
2018-11-01T12:19:54.881Z,3.12
2018-11-01T12:22:25.239Z,3.83
2018-11-01T12:24:54.938Z,2.25
2018-11-01T12:27:24.793Z,2.55
2018-11-01T12:29:54.842Z,3.20
2018-11-01T12:32:24.815Z,3.22
2018-11-01T12:34:54.662Z,3.58
2018-11-01T12:37:24.586Z,2.12
2018-11-01T12:39:54.811Z,2.65
2018-11-01T12:42:24.670Z,2.05
2018-11-01T12:44:54.539Z,2.80
2018-11-01T12:47:24.388Z,3.17
2018-11-01T12:49:54.290Z,3.02
2018-11-01T12:52:24.153Z,2.80
2018-11-01T12:54:54.048Z,3.47
2018-11-01T12:57:23.903Z,3.25
2018-11-01T12:59:53.759Z,2.27
2018-11-01T13:02:25.738Z,3.27
2018-11-01T13:04:56.722Z,12.45
2018-11-01T13:07:26.824Z,4.45
2018-11-01T13:09:56.920Z,8.65
2018-11-01T13:12:26.856Z,3.45
2018-11-01T13:14:56.736Z,3.05
2018-11-01T13:17:26.551Z,2.40
2018-11-01T13:19:56.460Z,3.15
2018-11-01T13:22:26.320Z,4.92
2018-11-01T13:24:56.160Z,3.47
2018-11-01T13:27:26.088Z,2.42
2018-11-01T13:29:56.538Z,4.28
2018-11-01T13:32:26.442Z,4.50
2018-11-01T13:34:56.343Z,3.85
2018-11-01T13:37:27.406Z,3.62
2018-11-01T13:39:57.615Z,4.83
2018-11-01T13:42:27.631Z,4.62
2018-11-01T13:44:57.519Z,3.80
2018-11-01T13:47:27.529Z,4.30
2018-11-01T13:49:57.340Z,3.55
2018-11-01T13:52:27.284Z,4.33
2018-11-01T13:54:57.145Z,4.45
2018-11-01T13:57:27.233Z,4.50
2018-11-01T13:59:57.392Z,3.85
2018-11-01T14:02:27.292Z,2.80
2018-11-01T14:04:57.517Z,3.77
2018-11-01T14:07:27.368Z,4.03
2018-11-01T14:09:57.220Z,3.30
2018-11-01T14:12:27.523Z,4.08
2018-11-01T14:14:58.036Z,2.98
2018-11-01T14:17:27.636Z,3.08
2018-11-01T14:19:57.509Z,4.55
2018-11-01T14:22:27.494Z,3.00
2018-11-01T14:24:58.053Z,3.52
2018-11-01T14:27:27.949Z,4.20
2018-11-01T14:29:58.210Z,3.80
2018-11-01T14:32:28.070Z,3.02
2018-11-01T14:34:57.944Z,3.25
2018-11-01T14:37:27.948Z,3.45
2018-11-01T14:39:57.833Z,3.20
2018-11-01T14:42:28.166Z,3.30
2018-11-01T14:44:58.002Z,3.85
2018-11-01T14:47:27.846Z,4.00
2018-11-01T14:49:57.747Z,2.62
2018-11-01T14:52:28.203Z,2.95
2018-11-01T14:54:59.030Z,3.47
2018-11-01T14:57:29.479Z,3.75
2018-11-01T14:59:57.827Z,3.08
2018-11-01T15:02:27.659Z,3.37
2018-11-01T15:04:57.542Z,2.87
2018-11-01T15:07:27.401Z,4.35
2018-11-01T15:09:57.324Z,4.08
2018-11-01T15:12:27.315Z,3.15
2018-11-01T15:14:57.422Z,3.72
2018-11-01T15:17:27.343Z,2.40
2018-11-01T15:19:57.220Z,3.75
2018-11-01T15:22:27.116Z,4.15
2018-11-01T15:24:57.199Z,3.05
2018-11-01T15:27:27.910Z,3.20
2018-11-01T15:29:57.757Z,3.42
2018-11-01T15:32:29.718Z,4.28
2018-11-01T15:35:00.103Z,3.42
2018-11-01T15:37:29.949Z,3.90
2018-11-01T15:39:59.815Z,3.10
2018-11-01T15:42:29.656Z,2.83
2018-11-01T15:44:59.520Z,3.45
2018-11-01T15:47:29.408Z,5.00
2018-11-01T15:49:59.661Z,3.95
2018-11-01T15:52:29.617Z,2.45
2018-11-01T15:54:59.828Z,2.95
2018-11-01T15:57:29.728Z,3.83
2018-11-01T15:59:59.685Z,4.75
2018-11-01T16:02:30.565Z,3.87
2018-11-01T16:05:00.388Z,4.33
2018-11-01T16:07:30.285Z,4.08
2018-11-01T16:10:00.287Z,4.25
2018-11-01T16:12:30.126Z,4.20
2018-11-01T16:15:00.051Z,2.83
2018-11-01T16:17:29.954Z,4.87
2018-11-01T16:20:00.150Z,3.65
2018-11-01T16:22:29.744Z,3.37
2018-11-01T16:24:59.663Z,2.95
2018-11-01T16:27:29.559Z,2.92
2018-11-01T16:29:59.458Z,4.53
2018-11-01T16:32:29.344Z,3.12
2018-11-01T16:34:59.223Z,6.00
2018-11-01T16:37:29.301Z,4.05
2018-11-01T16:39:59.212Z,3.65
2018-11-01T16:42:29.278Z,3.80
2018-11-01T16:44:59.026Z,4.05
2018-11-01T16:47:28.824Z,3.98
2018-11-01T16:49:58.693Z,4.90
2018-11-01T16:52:28.551Z,4.83
2018-11-01T16:54:58.967Z,5.08
2018-11-01T16:57:28.936Z,4.62
2018-11-01T16:59:58.800Z,4.40
2018-11-01T17:02:29.021Z,4.65
2018-11-01T17:04:58.965Z,3.98
2018-11-01T17:07:28.803Z,6.92
2018-11-01T17:09:59.120Z,3.80
2018-11-01T17:12:28.978Z,6.20
2018-11-01T17:14:58.877Z,5.12
2018-11-01T17:17:28.677Z,5.33
2018-11-01T17:19:58.579Z,4.10
2018-11-01T17:22:28.441Z,12.40
2018-11-01T17:24:58.339Z,6.47
2018-11-01T17:27:28.140Z,5.97
2018-11-01T17:29:58.680Z,9.98
2018-11-01T17:32:28.562Z,6.37
2018-11-01T17:34:58.450Z,19.85
2018-11-01T17:37:28.285Z,8.08
2018-11-01T17:39:58.281Z,5.33
2018-11-01T17:42:28.306Z,5.78
2018-11-01T17:44:58.143Z,5.70
2018-11-01T17:47:28.277Z,4.90
2018-11-01T17:49:58.274Z,3.90
2018-11-01T17:52:28.130Z,4.47
2018-11-01T17:54:57.974Z,3.65
2018-11-01T17:57:27.996Z,2.30
2018-11-01T17:59:57.968Z,3.62
2018-11-01T18:02:28.198Z,2.35
2018-11-01T18:04:57.923Z,2.98
2018-11-01T18:07:27.739Z,3.37
2018-11-01T18:09:57.583Z,3.25
2018-11-01T18:12:27.413Z,2.75
2018-11-01T18:14:57.268Z,1.98
2018-11-01T18:17:27.378Z,2.05
2018-11-01T18:19:57.223Z,2.10
2018-11-01T18:22:27.178Z,2.40
2018-11-01T18:24:57.446Z,2.80
2018-11-01T18:27:27.525Z,2.42
2018-11-01T18:29:57.554Z,2.30
2018-11-01T18:32:27.776Z,2.80
2018-11-01T18:34:58.776Z,2.50
2018-11-01T18:37:28.849Z,2.50
2018-11-01T18:39:58.687Z,2.87
2018-11-01T18:42:28.623Z,3.12
2018-11-01T18:44:58.471Z,2.72
2018-11-01T18:47:28.734Z,3.62
2018-11-01T18:49:58.640Z,3.47
2018-11-01T18:52:28.545Z,3.60
2018-11-01T18:54:58.443Z,3.95
2018-11-01T18:57:28.622Z,3.10
2018-11-01T18:59:58.701Z,3.50
2018-11-01T19:02:29.055Z,5.12
2018-11-01T19:04:58.896Z,4.17
2018-11-01T19:07:29.043Z,3.30
2018-11-01T19:09:59.536Z,2.70
2018-11-01T19:12:29.771Z,3.42
2018-11-01T19:14:59.643Z,3.70
2018-11-01T19:17:29.924Z,3.77
2018-11-01T19:19:59.752Z,3.62
2018-11-01T19:22:29.623Z,3.70
2018-11-01T19:24:59.722Z,3.50
2018-11-01T19:27:29.843Z,3.92
2018-11-01T19:29:59.414Z,3.60
2018-11-01T19:32:29.296Z,4.50
2018-11-01T19:34:59.175Z,3.77
2018-11-01T19:37:29.788Z,4.05
2018-11-01T19:40:00.137Z,4.58
2018-11-01T19:42:29.939Z,3.52
2018-11-01T19:44:59.796Z,4.00
2018-11-01T19:47:29.629Z,3.95
2018-11-01T19:49:59.464Z,4.50
2018-11-01T19:52:29.360Z,3.67
2018-11-01T19:54:59.200Z,4.22
2018-11-01T19:57:29.079Z,3.47
2018-11-01T19:59:59.652Z,3.40
2018-11-01T20:02:30.256Z,3.52
2018-11-01T20:05:00.103Z,3.22
2018-11-01T20:07:30.276Z,4.15
2018-11-01T20:10:00.314Z,3.98
2018-11-01T20:12:30.147Z,3.85
2018-11-01T20:15:00.199Z,3.50
2018-11-01T20:17:29.936Z,3.40
2018-11-01T20:19:59.851Z,2.80
2018-11-01T20:22:29.651Z,3.12
2018-11-01T20:24:59.793Z,3.37
2018-11-01T20:27:29.730Z,3.12
2018-11-01T20:29:59.715Z,3.22
2018-11-01T20:32:29.797Z,3.50
2018-11-01T20:34:59.641Z,3.35
2018-11-01T20:37:29.508Z,2.87
2018-11-01T20:39:59.860Z,2.65
2018-11-01T20:42:29.720Z,3.05
2018-11-01T20:44:59.575Z,2.85
2018-11-01T20:47:29.605Z,3.87
2018-11-01T20:49:59.496Z,2.95
2018-11-01T20:52:29.363Z,4.53
2018-11-01T20:54:59.620Z,3.85
2018-11-01T20:57:29.586Z,3.33
2018-11-01T20:59:59.338Z,3.25
2018-11-01T21:02:29.232Z,3.40
2018-11-01T21:04:59.130Z,3.80
2018-11-01T21:07:29.108Z,3.52
2018-11-01T21:09:58.985Z,3.02
2018-11-01T21:12:28.976Z,3.00
2018-11-01T21:14:59.559Z,3.42
2018-11-01T21:17:29.918Z,3.15
2018-11-01T21:19:59.737Z,3.08
2018-11-01T21:22:29.808Z,3.12
2018-11-01T21:24:59.717Z,3.05
2018-11-01T21:27:29.680Z,2.85
2018-11-01T21:29:59.916Z,2.98
2018-11-01T21:32:29.802Z,5.00
2018-11-01T21:35:00.101Z,3.62
2018-11-01T21:37:30.004Z,2.85
2018-11-01T21:40:00.053Z,3.30
2018-11-01T21:42:29.913Z,3.27
2018-11-01T21:44:59.755Z,3.72
2018-11-01T21:47:30.281Z,3.60
2018-11-01T21:50:00.122Z,2.47
2018-11-01T21:52:29.952Z,2.95
2018-11-01T21:54:59.843Z,2.85
2018-11-01T21:57:29.972Z,3.12
2018-11-01T22:00:00.780Z,2.62
2018-11-01T22:02:30.916Z,2.70
2018-11-01T22:05:00.871Z,3.45
2018-11-01T22:07:30.766Z,2.90
2018-11-01T22:10:00.638Z,2.75
2018-11-01T22:12:30.474Z,2.60
2018-11-01T22:15:00.767Z,2.70
2018-11-01T22:17:30.680Z,2.30
2018-11-01T22:20:00.541Z,3.50
2018-11-01T22:22:30.870Z,3.17
2018-11-01T22:25:00.719Z,3.47
2018-11-01T22:27:30.567Z,1.85
2018-11-01T22:30:01.164Z,2.47
2018-11-01T22:32:30.997Z,2.70
2018-11-01T22:35:01.136Z,2.50
2018-11-01T22:37:31.246Z,3.08
2018-11-01T22:40:01.264Z,4.72
2018-11-01T22:42:31.139Z,3.47
2018-11-01T22:45:01.286Z,3.10
2018-11-01T22:47:31.117Z,3.00
2018-11-01T22:50:01.313Z,2.20
2018-11-01T22:52:31.321Z,2.22
2018-11-01T22:55:01.194Z,2.22
2018-11-01T22:57:31.397Z,3.08
2018-11-01T23:00:01.403Z,2.92
2018-11-01T23:02:31.543Z,2.60
2018-11-01T23:05:01.507Z,3.00
2018-11-01T23:07:31.407Z,3.20
2018-11-01T23:10:01.245Z,4.42
2018-11-01T23:12:31.116Z,4.20
2018-11-01T23:15:01.058Z,3.05
2018-11-01T23:17:31.389Z,2.10
2018-11-01T23:20:01.368Z,2.70
2018-11-01T23:22:31.421Z,3.10
2018-11-01T23:25:01.390Z,2.85
2018-11-01T23:27:31.598Z,3.83
2018-11-01T23:30:02.170Z,3.10
2018-11-01T23:32:32.047Z,2.40
2018-11-01T23:35:01.896Z,2.83
2018-11-01T23:37:37.319Z,2.95
2018-11-01T23:40:12.416Z,3.22
2018-11-01T23:42:47.676Z,2.20
2018-11-01T23:45:22.923Z,2.83
2018-11-01T23:47:58.147Z,2.12
2018-11-01T23:51:04.788Z,2.87
2018-11-01T23:53:38.529Z,2.95
2018-11-01T23:56:08.386Z,2.50
2018-11-01T23:58:38.187Z,2.22
